createdAt,value
2023-03-21T00:01:05.986Z,36.30
2023-03-21T00:03:39.062Z,37.30
2023-03-21T00:06:14.912Z,37.90
2023-03-21T00:08:48.599Z,38.90
2023-03-21T00:11:22.713Z,38.00
2023-03-21T00:13:59.095Z,39.00
2023-03-21T00:16:36.650Z,39.10
2023-03-21T00:19:10.998Z,38.20
2023-03-21T00:22:03.202Z,39.90
2023-03-21T00:24:39.783Z,38.10
2023-03-21T00:27:39.746Z,38.50
2023-03-21T00:30:10.961Z,37.20
2023-03-21T00:32:55.425Z,37.50
2023-03-21T00:38:26.363Z,34.40
2023-03-21T00:41:04.700Z,34.20
2023-03-21T00:43:41.984Z,32.60
2023-03-21T00:46:15.712Z,36.50
2023-03-21T00:48:49.278Z,37.60
2023-03-21T00:51:29.342Z,38.90
2023-03-21T00:54:06.180Z,37.90
2023-03-21T00:56:39.112Z,38.60
2023-03-21T00:59:12.057Z,38.40
2023-03-21T01:01:47.315Z,39.60
2023-03-21T01:04:21.842Z,38.30
2023-03-21T01:06:56.321Z,38.20
2023-03-21T01:09:31.021Z,39.70
2023-03-21T01:12:06.233Z,40.20
2023-03-21T01:14:40.461Z,37.80
2023-03-21T01:17:14.039Z,40.50
2023-03-21T01:19:52.085Z,38.90
2023-03-21T01:22:27.223Z,37.50
2023-03-21T01:25:12.179Z,38.90
2023-03-21T01:27:55.375Z,35.60
2023-03-21T01:30:31.300Z,35.30
2023-03-21T01:33:09.411Z,34.20
2023-03-21T01:35:50.500Z,33.10
2023-03-21T01:38:28.438Z,32.00
2023-03-21T01:41:08.646Z,35.00
2023-03-21T01:43:47.962Z,36.80
2023-03-21T01:46:25.000Z,36.70
2023-03-21T01:49:26.002Z,37.40
2023-03-21T01:52:26.527Z,36.70
2023-03-21T01:55:12.847Z,36.30
2023-03-21T01:58:08.500Z,36.10
2023-03-21T02:00:57.344Z,34.10
2023-03-21T02:03:53.765Z,35.30
2023-03-21T02:06:58.402Z,36.50
2023-03-21T02:09:54.131Z,36.70
2023-03-21T02:12:29.858Z,36.90
2023-03-21T02:15:04.930Z,34.30
2023-03-21T02:18:04.938Z,32.80
2023-03-21T02:21:16.259Z,34.10
2023-03-21T02:23:55.909Z,32.10
2023-03-21T02:27:04.381Z,35.60
2023-03-21T02:30:14.865Z,33.00
2023-03-21T02:33:03.419Z,35.10
2023-03-21T02:36:18.381Z,34.30
2023-03-21T02:39:05.443Z,36.70
2023-03-21T02:41:53.672Z,38.70
2023-03-21T02:44:45.471Z,35.20
2023-03-21T02:47:31.874Z,37.40
2023-03-21T02:50:25.485Z,39.10
2023-03-21T02:53:00.731Z,40.60
2023-03-21T02:55:39.341Z,42.30
2023-03-21T02:58:17.043Z,42.10
2023-03-21T03:00:58.793Z,43.50
2023-03-21T03:03:40.302Z,42.80
2023-03-21T03:06:25.294Z,40.50
2023-03-21T03:09:23.411Z,38.80
2023-03-21T03:12:31.912Z,35.30
2023-03-21T03:15:22.851Z,34.40
2023-03-21T03:18:13.564Z,34.80
2023-03-21T03:20:47.354Z,37.50
2023-03-21T03:23:41.838Z,43.90
2023-03-21T03:26:29.314Z,39.70
2023-03-21T03:29:09.743Z,37.90
2023-03-21T03:32:27.958Z,37.30
2023-03-21T03:35:03.162Z,37.00
2023-03-21T03:37:38.581Z,37.60
2023-03-21T03:40:17.956Z,38.00
2023-03-21T03:43:06.220Z,37.40
2023-03-21T03:45:51.735Z,38.70
2023-03-21T03:48:47.166Z,37.80
2023-03-21T03:51:40.214Z,37.70
2023-03-21T03:54:27.083Z,35.90
2023-03-21T03:56:59.897Z,38.70
2023-03-21T03:59:32.678Z,36.70
2023-03-21T04:02:30.933Z,35.50
2023-03-21T04:05:07.486Z,38.00
2023-03-21T04:07:42.104Z,42.60
2023-03-21T04:10:15.110Z,42.90
2023-03-21T04:12:48.329Z,41.20
2023-03-21T04:15:43.734Z,44.50
2023-03-21T04:18:20.299Z,46.50
2023-03-21T04:20:53.766Z,45.70
2023-03-21T04:23:26.833Z,44.00
2023-03-21T04:26:00.048Z,43.90
2023-03-21T04:28:40.327Z,44.10
2023-03-21T04:31:31.593Z,41.20
2023-03-21T04:34:12.952Z,41.30
2023-03-21T04:36:54.738Z,45.10
2023-03-21T04:39:28.016Z,54.50
2023-03-21T04:42:02.881Z,52.20
2023-03-21T04:44:36.654Z,64.30
2023-03-21T04:47:10.177Z,43.80
2023-03-21T04:49:44.690Z,37.50
2023-03-21T04:52:18.706Z,33.90
2023-03-21T04:54:54.368Z,32.30
2023-03-21T04:57:27.524Z,33.50
2023-03-21T05:00:00.242Z,33.90
2023-03-21T05:02:32.833Z,35.40
2023-03-21T05:05:05.863Z,38.40
2023-03-21T05:07:40.093Z,36.80
2023-03-21T05:10:14.829Z,37.10
2023-03-21T05:12:48.534Z,37.80
2023-03-21T05:15:22.350Z,38.20
2023-03-21T05:17:55.712Z,36.30
2023-03-21T05:20:29.624Z,37.50
2023-03-21T05:23:02.896Z,35.00
2023-03-21T05:25:38.853Z,35.00
2023-03-21T05:28:21.450Z,35.40
2023-03-21T05:30:54.894Z,38.00
2023-03-21T05:33:28.030Z,35.50
2023-03-21T05:36:01.484Z,36.20
2023-03-21T05:38:37.408Z,36.30
2023-03-21T05:41:11.535Z,36.80
2023-03-21T05:43:45.449Z,37.20
2023-03-21T05:46:21.640Z,38.10
2023-03-21T05:48:55.698Z,35.70
2023-03-21T05:51:30.444Z,34.10
2023-03-21T05:54:04.223Z,35.10
2023-03-21T05:56:38.470Z,32.10
2023-03-21T05:59:15.002Z,35.00
2023-03-21T06:01:48.416Z,37.40
2023-03-21T06:04:21.643Z,36.50
2023-03-21T06:06:55.532Z,36.60
2023-03-21T06:09:29.743Z,36.80
2023-03-21T06:12:05.437Z,38.30
2023-03-21T06:15:13.220Z,36.70
2023-03-21T06:18:03.630Z,37.00
2023-03-21T06:20:37.545Z,38.60
2023-03-21T06:23:16.377Z,38.70
2023-03-21T06:25:51.237Z,38.50
2023-03-21T06:28:24.506Z,37.40
2023-03-21T06:30:57.997Z,40.40
2023-03-21T06:33:33.543Z,40.10
2023-03-21T06:36:07.475Z,41.30
2023-03-21T06:38:41.500Z,45.70
2023-03-21T06:41:15.301Z,44.60
2023-03-21T06:43:51.211Z,44.40
2023-03-21T06:46:24.538Z,43.50
2023-03-21T06:48:57.983Z,42.10
2023-03-21T06:51:32.294Z,42.90
2023-03-21T06:54:18.669Z,43.00
2023-03-21T06:56:59.392Z,45.40
2023-03-21T06:59:36.827Z,44.90
2023-03-21T07:02:16.680Z,47.10
2023-03-21T07:05:10.093Z,51.00
2023-03-21T07:07:43.601Z,52.30
2023-03-21T07:10:16.577Z,52.20
2023-03-21T07:13:05.230Z,49.90
2023-03-21T07:15:44.889Z,51.00
2023-03-21T07:18:18.398Z,49.60
2023-03-21T07:20:53.392Z,46.60
2023-03-21T07:23:27.688Z,46.80
2023-03-21T07:26:02.007Z,44.10
2023-03-21T07:28:35.316Z,46.00
2023-03-21T07:31:10.782Z,48.10
2023-03-21T07:33:44.180Z,45.20
2023-03-21T07:36:18.465Z,49.20
2023-03-21T07:38:55.045Z,49.00
2023-03-21T07:41:29.755Z,48.60
2023-03-21T07:44:15.307Z,42.80
2023-03-21T07:46:49.089Z,40.10
2023-03-21T07:49:22.461Z,39.50
2023-03-21T07:51:56.437Z,41.50
2023-03-21T07:54:29.595Z,42.90
2023-03-21T07:57:02.564Z,38.50
2023-03-21T07:59:40.350Z,36.70
2023-03-21T08:02:20.033Z,34.70
2023-03-21T08:04:53.218Z,37.10
2023-03-21T08:07:28.178Z,32.10
2023-03-21T08:10:01.747Z,33.10
2023-03-21T08:12:34.722Z,34.70
2023-03-21T08:15:09.299Z,33.10
2023-03-21T08:17:46.645Z,32.10
2023-03-21T08:20:22.420Z,32.10
2023-03-21T08:22:58.912Z,32.60
2023-03-21T08:25:31.984Z,32.40
2023-03-21T08:28:05.409Z,32.20
2023-03-21T08:30:39.900Z,33.80
2023-03-21T08:33:14.047Z,33.00
2023-03-21T08:35:47.303Z,33.30
2023-03-21T08:38:20.306Z,31.30
2023-03-21T08:40:53.739Z,33.10
2023-03-21T08:43:31.177Z,32.00
2023-03-21T08:46:04.792Z,31.90
2023-03-21T08:48:39.392Z,31.00
2023-03-21T08:51:12.901Z,29.40
2023-03-21T08:53:46.645Z,29.80
2023-03-21T08:56:19.751Z,31.80
2023-03-21T08:58:52.563Z,33.60
2023-03-21T09:01:25.491Z,31.50
2023-03-21T09:03:58.855Z,29.80
2023-03-21T09:06:34.057Z,30.00
2023-03-21T09:09:08.943Z,31.50
2023-03-21T09:11:42.281Z,30.30
2023-03-21T09:14:15.331Z,31.30
2023-03-21T09:16:48.123Z,30.60
2023-03-21T09:19:21.240Z,30.80
2023-03-21T09:21:54.658Z,32.40
2023-03-21T09:24:27.982Z,32.20
2023-03-21T09:27:01.103Z,34.10
2023-03-21T09:29:34.644Z,33.40
2023-03-21T09:32:08.869Z,35.50
2023-03-21T09:34:42.383Z,33.00
2023-03-21T09:37:16.224Z,32.40
2023-03-21T09:39:51.886Z,32.90
2023-03-21T09:42:48.534Z,30.70
2023-03-21T09:45:27.876Z,31.10
2023-03-21T09:48:01.471Z,31.50
2023-03-21T09:50:40.856Z,32.30
2023-03-21T09:53:30.705Z,32.50
2023-03-21T09:56:06.361Z,31.60
2023-03-21T09:58:43.453Z,31.60
2023-03-21T10:01:34.737Z,33.00
2023-03-21T10:04:09.992Z,30.80
2023-03-21T10:06:46.546Z,29.70
2023-03-21T10:09:24.969Z,31.50
2023-03-21T10:12:04.968Z,30.80
2023-03-21T10:14:52.712Z,32.40
2023-03-21T10:17:45.275Z,29.90
2023-03-21T10:20:28.898Z,30.80
2023-03-21T10:23:05.152Z,30.40
2023-03-21T10:25:45.502Z,29.90
2023-03-21T10:28:22.459Z,28.90
2023-03-21T10:31:03.536Z,30.00
2023-03-21T10:33:43.186Z,29.80
2023-03-21T10:36:26.562Z,28.40
2023-03-21T10:39:07.049Z,27.90
2023-03-21T10:41:40.752Z,28.70
2023-03-21T10:44:18.355Z,28.40
2023-03-21T10:47:00.659Z,26.50
2023-03-21T10:49:40.745Z,27.90
2023-03-21T10:52:29.263Z,26.70
2023-03-21T10:55:32.572Z,26.80
2023-03-21T10:58:11.260Z,27.00
2023-03-21T11:00:45.993Z,26.80
2023-03-21T11:03:31.813Z,25.10
2023-03-21T11:06:30.660Z,24.80
2023-03-21T11:09:21.048Z,22.20
2023-03-21T11:12:07.337Z,22.80
2023-03-21T11:14:49.265Z,23.50
2023-03-21T11:17:31.925Z,21.20
2023-03-21T11:20:13.077Z,21.40
2023-03-21T11:22:48.072Z,21.60
2023-03-21T11:25:49.829Z,21.10
2023-03-21T11:28:26.032Z,21.50
2023-03-21T11:31:02.506Z,21.70
2023-03-21T11:33:46.647Z,20.90
2023-03-21T11:36:22.383Z,21.50
2023-03-21T11:39:02.254Z,20.90
2023-03-21T11:41:41.557Z,20.50
2023-03-21T11:44:33.975Z,19.20
2023-03-21T11:47:06.882Z,18.80
2023-03-21T11:49:39.712Z,19.50
2023-03-21T11:52:41.344Z,21.10
2023-03-21T11:55:43.373Z,20.70
2023-03-21T11:58:34.769Z,19.50
2023-03-21T12:01:14.693Z,19.60
2023-03-21T12:04:09.404Z,19.10
2023-03-21T12:06:56.502Z,18.20
2023-03-21T12:09:38.544Z,18.90
2023-03-21T12:12:39.130Z,19.00
2023-03-21T12:15:41.554Z,19.10
2023-03-21T12:21:22.060Z,17.70
2023-03-21T12:24:41.748Z,17.10
2023-03-21T12:27:42.550Z,15.40
2023-03-21T12:30:34.125Z,14.60
2023-03-21T12:33:21.550Z,13.90
2023-03-21T12:36:22.280Z,13.00
2023-03-21T12:39:19.310Z,14.30
2023-03-21T12:42:12.799Z,13.90
2023-03-21T12:44:52.742Z,13.70
2023-03-21T12:47:32.456Z,15.00
2023-03-21T12:50:25.497Z,13.50
2023-03-21T12:53:04.231Z,13.20
2023-03-21T12:55:39.960Z,12.70
2023-03-21T12:58:21.880Z,12.00
2023-03-21T13:01:01.911Z,12.10
2023-03-21T13:03:46.218Z,11.70
2023-03-21T13:06:22.001Z,11.80
2023-03-21T13:09:36.759Z,12.50
2023-03-21T13:12:41.526Z,12.40
2023-03-21T13:18:29.954Z,12.00
2023-03-21T13:21:19.984Z,12.30
2023-03-21T13:24:04.689Z,12.10
2023-03-21T13:26:42.978Z,15.10
2023-03-21T13:29:27.606Z,12.30
2023-03-21T13:32:17.727Z,11.80
2023-03-21T13:35:00.115Z,12.40
2023-03-21T13:37:35.846Z,11.50
2023-03-21T13:40:43.979Z,11.50
2023-03-21T13:43:34.339Z,11.00
2023-03-21T13:46:16.337Z,11.30
2023-03-21T13:49:12.859Z,11.00
2023-03-21T13:51:58.823Z,11.20
2023-03-21T13:54:58.633Z,11.90
2023-03-21T13:57:31.265Z,11.70
2023-03-21T14:00:24.440Z,11.40
2023-03-21T14:03:12.144Z,10.90
2023-03-21T14:05:52.130Z,12.60
2023-03-21T14:08:36.871Z,14.40
2023-03-21T14:11:18.823Z,15.30
2023-03-21T14:13:52.566Z,16.70
2023-03-21T14:16:30.621Z,15.00
2023-03-21T14:19:07.977Z,15.40
2023-03-21T14:21:48.659Z,15.80
2023-03-21T14:24:22.650Z,14.80
2023-03-21T14:26:59.428Z,15.50
2023-03-21T14:29:37.269Z,18.90
2023-03-21T14:32:21.856Z,18.90
2023-03-21T14:34:56.521Z,16.60
2023-03-21T14:37:40.773Z,16.90
2023-03-21T14:40:26.130Z,16.40
2023-03-21T14:43:00.052Z,17.50
2023-03-21T14:45:36.539Z,15.40
2023-03-21T14:48:16.824Z,17.50
2023-03-21T14:51:05.264Z,16.20
2023-03-21T14:53:44.839Z,15.80
2023-03-21T14:56:36.504Z,16.20
2023-03-21T14:59:14.061Z,16.20
2023-03-21T15:01:49.820Z,15.50
2023-03-21T15:04:23.348Z,16.60
2023-03-21T15:07:05.714Z,18.50
2023-03-21T15:12:13.207Z,20.90
2023-03-21T15:14:46.578Z,23.20
2023-03-21T15:17:20.504Z,23.30
2023-03-21T15:19:53.337Z,24.10
2023-03-21T15:22:52.121Z,23.00
2023-03-21T15:25:35.066Z,22.70
2023-03-21T15:28:08.623Z,25.10
2023-03-21T15:30:50.829Z,25.40
2023-03-21T15:36:02.413Z,23.40
2023-03-21T15:38:53.617Z,24.90
2023-03-21T15:41:26.196Z,25.70
2023-03-21T15:44:18.289Z,25.90
2023-03-21T15:46:53.077Z,26.20
2023-03-21T15:49:32.004Z,24.80
2023-03-21T15:52:20.121Z,23.40
2023-03-21T15:55:04.603Z,23.00
2023-03-21T15:57:38.534Z,22.70
2023-03-21T16:00:20.497Z,22.40
2023-03-21T16:03:01.693Z,22.10
2023-03-21T16:05:36.016Z,20.90
2023-03-21T16:08:21.034Z,20.60
2023-03-21T16:10:53.873Z,20.90
2023-03-21T16:13:26.727Z,21.90
2023-03-21T16:15:59.895Z,22.50
2023-03-21T16:18:33.191Z,22.30
2023-03-21T16:21:06.644Z,24.00
2023-03-21T16:23:39.756Z,23.00
2023-03-21T16:26:17.093Z,23.30
2023-03-21T16:28:50.707Z,24.00
2023-03-21T16:31:31.390Z,22.90
2023-03-21T16:34:05.609Z,23.20
2023-03-21T16:36:41.456Z,23.90
2023-03-21T16:39:21.584Z,25.00
2023-03-21T16:41:54.618Z,25.00
2023-03-21T16:44:27.546Z,25.70
2023-03-21T16:47:02.205Z,25.90
2023-03-21T16:49:35.683Z,25.10
2023-03-21T16:52:08.660Z,27.00
2023-03-21T16:54:42.650Z,25.60
2023-03-21T16:57:35.117Z,24.00
2023-03-21T17:00:11.911Z,23.30
2023-03-21T17:02:44.536Z,24.80
2023-03-21T17:05:17.411Z,26.80
2023-03-21T17:07:50.352Z,26.90
2023-03-21T17:10:29.152Z,26.30
2023-03-21T17:13:02.381Z,25.10
2023-03-21T17:15:35.196Z,31.90
2023-03-21T17:18:08.199Z,122.60
2023-03-21T17:20:42.119Z,60.80
2023-03-21T17:23:15.467Z,55.50
2023-03-21T17:25:48.302Z,46.10
2023-03-21T17:28:21.053Z,37.60
2023-03-21T17:30:54.095Z,46.60
2023-03-21T17:33:27.582Z,42.90
2023-03-21T17:36:01.122Z,38.20
2023-03-21T17:38:35.645Z,34.10
2023-03-21T17:41:11.132Z,33.30
2023-03-21T17:43:44.042Z,35.80
2023-03-21T17:46:25.537Z,34.90
2023-03-21T17:48:58.978Z,34.10
2023-03-21T17:51:33.542Z,35.40
2023-03-21T17:54:07.184Z,35.90
2023-03-21T17:56:42.196Z,37.10
2023-03-21T17:59:16.481Z,34.40
2023-03-21T18:01:49.878Z,33.00
2023-03-21T18:04:23.212Z,32.70
2023-03-21T18:07:01.098Z,33.70
2023-03-21T18:09:34.446Z,35.00
2023-03-21T18:12:07.594Z,36.30
2023-03-21T18:14:40.856Z,38.00
2023-03-21T18:17:13.936Z,38.90
2023-03-21T18:19:48.083Z,40.20
2023-03-21T18:22:20.598Z,42.80
2023-03-21T18:24:53.988Z,45.30
2023-03-21T18:27:27.384Z,44.20
2023-03-21T18:32:54.717Z,39.50
2023-03-21T18:35:28.313Z,41.00
2023-03-21T18:38:03.258Z,40.30
2023-03-21T18:40:36.817Z,39.20
2023-03-21T18:43:56.002Z,34.40
2023-03-21T18:46:04.404Z,30.60
2023-03-21T18:48:37.572Z,33.90
2023-03-21T18:51:10.736Z,30.60
2023-03-21T18:53:43.681Z,32.00
2023-03-21T18:59:12.956Z,37.10
2023-03-21T19:01:46.183Z,35.80
2023-03-21T19:04:25.614Z,32.40
2023-03-21T19:07:05.656Z,32.10
2023-03-21T19:10:01.453Z,30.30
2023-03-21T19:12:33.635Z,30.00
2023-03-21T19:15:07.076Z,29.80
2023-03-21T19:18:28.615Z,29.50
2023-03-21T19:20:35.445Z,29.80
2023-03-21T19:23:09.694Z,33.80
2023-03-21T19:25:44.244Z,36.40
2023-03-21T19:28:17.237Z,48.40
2023-03-21T19:30:50.980Z,50.60
2023-03-21T19:33:25.002Z,48.60
2023-03-21T19:36:12.955Z,46.60
2023-03-21T19:38:51.828Z,45.80
2023-03-21T19:41:25.437Z,41.30
2023-03-21T19:43:57.979Z,43.90
2023-03-21T19:46:31.868Z,41.70
2023-03-21T19:49:06.593Z,41.00
2023-03-21T19:51:40.145Z,41.70
2023-03-21T19:54:13.141Z,40.20
2023-03-21T19:56:48.039Z,41.60
2023-03-21T19:59:21.477Z,38.30
2023-03-21T20:01:57.028Z,40.20
2023-03-21T20:04:35.897Z,38.90
2023-03-21T20:07:09.064Z,38.90
2023-03-21T20:09:52.291Z,38.80
2023-03-21T20:12:28.098Z,32.30
2023-03-21T20:15:16.598Z,37.40
2023-03-21T20:17:54.987Z,37.40
2023-03-21T20:20:27.944Z,38.50
2023-03-21T20:23:07.314Z,34.60
2023-03-21T20:25:46.172Z,33.40
2023-03-21T20:28:25.798Z,36.30
2023-03-21T20:31:03.567Z,35.90
2023-03-21T20:33:37.028Z,34.20
2023-03-21T20:36:37.562Z,37.20
2023-03-21T20:39:05.732Z,41.00
2023-03-21T20:41:39.468Z,40.80
2023-03-21T20:44:47.984Z,40.70
2023-03-21T20:47:08.853Z,41.00
2023-03-21T20:49:41.902Z,41.90
2023-03-21T20:52:54.492Z,49.10
2023-03-21T20:55:12.024Z,47.20
2023-03-21T20:57:48.424Z,48.70
2023-03-21T21:00:22.736Z,46.70
2023-03-21T21:02:57.208Z,44.10
2023-03-21T21:05:34.507Z,41.70
2023-03-21T21:08:11.286Z,39.50
2023-03-21T21:11:21.036Z,37.10
2023-03-21T21:13:41.064Z,35.20
2023-03-21T21:16:15.073Z,33.90
2023-03-21T21:18:48.311Z,33.50
2023-03-21T21:21:21.294Z,35.30
2023-03-21T21:23:54.408Z,35.60
2023-03-21T21:26:27.621Z,36.50
2023-03-21T21:29:02.035Z,34.20
2023-03-21T21:31:36.298Z,34.60
2023-03-21T21:34:09.685Z,33.40
2023-03-21T21:36:43.698Z,35.30
2023-03-21T21:39:17.441Z,32.50
2023-03-21T21:41:50.555Z,33.30
2023-03-21T21:44:24.359Z,31.70
2023-03-21T21:46:58.400Z,33.80
2023-03-21T21:49:32.092Z,31.40
2023-03-21T21:52:05.334Z,29.90
2023-03-21T21:54:39.819Z,28.50
2023-03-21T21:57:13.088Z,27.10
2023-03-21T21:59:46.349Z,28.40
2023-03-21T22:02:19.803Z,28.00
2023-03-21T22:04:56.282Z,29.00
2023-03-21T22:07:32.841Z,29.70
2023-03-21T22:10:06.390Z,30.30
2023-03-21T22:12:39.460Z,33.60
2023-03-21T22:15:15.020Z,35.70
2023-03-21T22:17:48.739Z,34.10
2023-03-21T22:20:23.534Z,34.30
2023-03-21T22:23:00.113Z,33.80
2023-03-21T22:25:33.778Z,33.80
2023-03-21T22:28:07.359Z,33.10
2023-03-21T22:30:40.905Z,33.60
2023-03-21T22:33:14.261Z,32.00
2023-03-21T22:35:47.640Z,31.60
2023-03-21T22:38:26.249Z,31.00
2023-03-21T22:41:00.748Z,30.50
2023-03-21T22:43:37.686Z,32.70
2023-03-21T22:46:11.331Z,34.40
2023-03-21T22:48:44.686Z,34.30
2023-03-21T22:51:18.095Z,36.40
2023-03-21T22:53:51.321Z,39.40
2023-03-21T22:56:24.416Z,49.10
2023-03-21T22:58:57.735Z,54.80
2023-03-21T23:01:31.924Z,51.00
2023-03-21T23:04:04.809Z,45.90
2023-03-21T23:06:38.184Z,40.60
2023-03-21T23:09:11.600Z,38.10
2023-03-21T23:11:46.710Z,37.80
2023-03-21T23:14:23.039Z,37.40
2023-03-21T23:17:00.800Z,36.00
2023-03-21T23:19:34.278Z,33.10
2023-03-21T23:22:07.904Z,30.70
2023-03-21T23:24:40.965Z,27.30
2023-03-21T23:27:14.853Z,28.30
2023-03-21T23:29:48.106Z,32.70
2023-03-21T23:32:21.347Z,32.70
2023-03-21T23:34:56.266Z,33.30
2023-03-21T23:37:30.645Z,34.20
2023-03-21T23:40:06.777Z,33.50
2023-03-21T23:42:39.985Z,34.80
2023-03-21T23:45:13.224Z,34.50
2023-03-21T23:47:46.630Z,34.00
2023-03-21T23:50:19.987Z,33.80
2023-03-21T23:52:52.757Z,34.20
2023-03-21T23:55:25.941Z,33.30
2023-03-21T23:58:01.324Z,32.50
